sensor_id;sensor_type;location;lat;lon;timestamp;temperature;humidity
14739;DHT22;7461;52.440;13.540;2023-04-16T00:00:48;9.70;99.90
14739;DHT22;7461;52.440;13.540;2023-04-16T00:03:15;9.80;99.90
14739;DHT22;7461;52.440;13.540;2023-04-16T00:05:42;9.70;99.90
14739;DHT22;7461;52.440;13.540;2023-04-16T00:08:08;9.80;99.90
14739;DHT22;7461;52.440;13.540;2023-04-16T00:10:37;9.70;99.90
14739;DHT22;7461;52.440;13.540;2023-04-16T00:13:04;9.70;99.90
14739;DHT22;7461;52.440;13.540;2023-04-16T00:15:31;9.70;99.90
14739;DHT22;7461;52.440;13.540;2023-04-16T00:17:58;9.70;99.90
14739;DHT22;7461;52.440;13.540;2023-04-16T00:20:25;9.70;99.90
14739;DHT22;7461;52.440;13.540;2023-04-16T00:22:51;9.70;99.90
14739;DHT22;7461;52.440;13.540;2023-04-16T00:25:18;9.70;99.90
14739;DHT22;7461;52.440;13.540;2023-04-16T00:27:47;9.70;99.90
14739;DHT22;7461;52.440;13.540;2023-04-16T00:30:14;9.60;99.90
14739;DHT22;7461;52.440;13.540;2023-04-16T00:32:41;9.70;99.90
14739;DHT22;7461;52.440;13.540;2023-04-16T00:35:08;9.60;99.90
14739;DHT22;7461;52.440;13.540;2023-04-16T00:37:35;9.60;99.90
14739;DHT22;7461;52.440;13.540;2023-04-16T00:40:02;9.60;99.90
14739;DHT22;7461;52.440;13.540;2023-04-16T00:42:30;9.60;99.90
14739;DHT22;7461;52.440;13.540;2023-04-16T00:44:58;9.60;99.90
14739;DHT22;7461;52.440;13.540;2023-04-16T00:47:25;9.60;99.90
14739;DHT22;7461;52.440;13.540;2023-04-16T00:49:52;9.60;99.90
14739;DHT22;7461;52.440;13.540;2023-04-16T00:52:20;9.60;99.90
14739;DHT22;7461;52.440;13.540;2023-04-16T00:54:47;9.60;99.90
14739;DHT22;7461;52.440;13.540;2023-04-16T00:57:14;9.60;99.90
14739;DHT22;7461;52.440;13.540;2023-04-16T00:59:42;9.60;99.90
14739;DHT22;7461;52.440;13.540;2023-04-16T01:02:11;9.60;99.90
14739;DHT22;7461;52.440;13.540;2023-04-16T01:04:38;9.60;99.90
14739;DHT22;7461;52.440;13.540;2023-04-16T01:07:05;9.60;99.90
14739;DHT22;7461;52.440;13.540;2023-04-16T01:09:32;9.60;99.90
14739;DHT22;7461;52.440;13.540;2023-04-16T01:11:59;9.60;99.90
14739;DHT22;7461;52.440;13.540;2023-04-16T01:14:26;9.60;99.90
14739;DHT22;7461;52.440;13.540;2023-04-16T01:16:53;9.60;99.90
14739;DHT22;7461;52.440;13.540;2023-04-16T01:19:22;9.60;99.90
14739;DHT22;7461;52.440;13.540;2023-04-16T01:21:50;9.60;99.90
14739;DHT22;7461;52.440;13.540;2023-04-16T01:24:17;9.60;99.90
14739;DHT22;7461;52.440;13.540;2023-04-16T01:26:43;9.60;99.90
14739;DHT22;7461;52.440;13.540;2023-04-16T01:29:10;9.50;99.90
14739;DHT22;7461;52.440;13.540;2023-04-16T01:31:37;9.60;99.90
14739;DHT22;7461;52.440;13.540;2023-04-16T01:34:05;9.60;99.90
14739;DHT22;7461;52.440;13.540;2023-04-16T01:36:31;9.60;99.90
14739;DHT22;7461;52.440;13.540;2023-04-16T01:39:00;9.60;99.90
14739;DHT22;7461;52.440;13.540;2023-04-16T01:41:27;9.60;99.90
14739;DHT22;7461;52.440;13.540;2023-04-16T01:43:54;9.60;99.90
14739;DHT22;7461;52.440;13.540;2023-04-16T01:46:26;9.60;99.90
14739;DHT22;7461;52.440;13.540;2023-04-16T01:48:53;9.60;99.90
14739;DHT22;7461;52.440;13.540;2023-04-16T01:51:20;9.60;99.90
14739;DHT22;7461;52.440;13.540;2023-04-16T01:53:48;9.60;99.90
14739;DHT22;7461;52.440;13.540;2023-04-16T01:56:16;9.60;99.90
14739;DHT22;7461;52.440;13.540;2023-04-16T01:58:43;9.60;99.90
14739;DHT22;7461;52.440;13.540;2023-04-16T02:01:11;9.60;99.90
14739;DHT22;7461;52.440;13.540;2023-04-16T02:03:38;9.60;99.90
14739;DHT22;7461;52.440;13.540;2023-04-16T02:06:06;9.60;99.90
14739;DHT22;7461;52.440;13.540;2023-04-16T02:08:32;9.60;99.90
14739;DHT22;7461;52.440;13.540;2023-04-16T02:11:00;9.60;99.90
14739;DHT22;7461;52.440;13.540;2023-04-16T02:13:28;9.60;99.90
14739;DHT22;7461;52.440;13.540;2023-04-16T02:15:55;9.60;99.90
14739;DHT22;7461;52.440;13.540;2023-04-16T02:18:22;9.60;99.90
14739;DHT22;7461;52.440;13.540;2023-04-16T02:20:49;9.60;99.90
14739;DHT22;7461;52.440;13.540;2023-04-16T02:23:16;9.60;99.90
14739;DHT22;7461;52.440;13.540;2023-04-16T02:25:44;9.60;99.90
14739;DHT22;7461;52.440;13.540;2023-04-16T02:28:13;9.60;99.90
14739;DHT22;7461;52.440;13.540;2023-04-16T02:30:42;9.60;99.90
14739;DHT22;7461;52.440;13.540;2023-04-16T02:33:10;9.60;99.90
14739;DHT22;7461;52.440;13.540;2023-04-16T02:35:38;9.60;99.90
14739;DHT22;7461;52.440;13.540;2023-04-16T02:38:06;9.60;99.90
14739;DHT22;7461;52.440;13.540;2023-04-16T02:40:33;9.60;99.90
14739;DHT22;7461;52.440;13.540;2023-04-16T02:43:00;9.60;99.90
14739;DHT22;7461;52.440;13.540;2023-04-16T02:45:27;9.60;99.90
14739;DHT22;7461;52.440;13.540;2023-04-16T02:47:57;9.60;99.90
14739;DHT22;7461;52.440;13.540;2023-04-16T02:50:24;9.60;99.90
14739;DHT22;7461;52.440;13.540;2023-04-16T02:52:51;9.60;99.90
14739;DHT22;7461;52.440;13.540;2023-04-16T02:55:18;9.60;99.90
14739;DHT22;7461;52.440;13.540;2023-04-16T02:57:45;9.60;99.90
14739;DHT22;7461;52.440;13.540;2023-04-16T03:00:12;9.60;99.90
14739;DHT22;7461;52.440;13.540;2023-04-16T03:02:39;9.60;99.90
14739;DHT22;7461;52.440;13.540;2023-04-16T03:05:08;9.60;99.90
14739;DHT22;7461;52.440;13.540;2023-04-16T03:07:36;9.60;99.90
14739;DHT22;7461;52.440;13.540;2023-04-16T03:10:07;9.60;99.90
14739;DHT22;7461;52.440;13.540;2023-04-16T03:12:34;9.60;99.90
14739;DHT22;7461;52.440;13.540;2023-04-16T03:15:02;9.60;99.90
14739;DHT22;7461;52.440;13.540;2023-04-16T03:17:29;9.60;99.90
14739;DHT22;7461;52.440;13.540;2023-04-16T03:19:56;9.60;99.90
14739;DHT22;7461;52.440;13.540;2023-04-16T03:22:24;9.60;99.90
14739;DHT22;7461;52.440;13.540;2023-04-16T03:24:51;9.60;99.90
14739;DHT22;7461;52.440;13.540;2023-04-16T03:27:18;9.60;99.90
14739;DHT22;7461;52.440;13.540;2023-04-16T03:29:45;9.60;99.90
14739;DHT22;7461;52.440;13.540;2023-04-16T03:32:12;9.60;99.90
14739;DHT22;7461;52.440;13.540;2023-04-16T03:34:39;9.60;99.90
14739;DHT22;7461;52.440;13.540;2023-04-16T03:37:06;9.60;99.90
14739;DHT22;7461;52.440;13.540;2023-04-16T03:39:37;9.60;99.90
14739;DHT22;7461;52.440;13.540;2023-04-16T03:42:04;9.60;99.90
14739;DHT22;7461;52.440;13.540;2023-04-16T03:44:32;9.60;99.90
14739;DHT22;7461;52.440;13.540;2023-04-16T03:46:58;9.60;99.90
14739;DHT22;7461;52.440;13.540;2023-04-16T03:49:25;9.50;99.90
14739;DHT22;7461;52.440;13.540;2023-04-16T03:51:52;9.50;99.90
14739;DHT22;7461;52.440;13.540;2023-04-16T03:54:19;9.50;99.90
14739;DHT22;7461;52.440;13.540;2023-04-16T03:56:48;9.50;99.90
14739;DHT22;7461;52.440;13.540;2023-04-16T03:59:14;9.50;99.90
14739;DHT22;7461;52.440;13.540;2023-04-16T04:01:41;9.40;99.90
14739;DHT22;7461;52.440;13.540;2023-04-16T04:04:08;9.40;99.90
14739;DHT22;7461;52.440;13.540;2023-04-16T04:06:35;9.40;99.90
14739;DHT22;7461;52.440;13.540;2023-04-16T04:09:02;9.40;99.90
14739;DHT22;7461;52.440;13.540;2023-04-16T04:11:29;9.40;99.90
14739;DHT22;7461;52.440;13.540;2023-04-16T04:13:58;9.40;99.90
14739;DHT22;7461;52.440;13.540;2023-04-16T04:16:25;9.40;99.90
14739;DHT22;7461;52.440;13.540;2023-04-16T04:18:51;9.30;99.90
14739;DHT22;7461;52.440;13.540;2023-04-16T04:21:19;9.40;99.90
14739;DHT22;7461;52.440;13.540;2023-04-16T04:23:46;9.40;99.90
14739;DHT22;7461;52.440;13.540;2023-04-16T04:26:13;9.30;99.90
14739;DHT22;7461;52.440;13.540;2023-04-16T04:28:40;9.40;99.90
14739;DHT22;7461;52.440;13.540;2023-04-16T04:31:09;9.30;99.90
14739;DHT22;7461;52.440;13.540;2023-04-16T04:33:36;9.30;99.90
14739;DHT22;7461;52.440;13.540;2023-04-16T04:36:06;9.30;99.90
14739;DHT22;7461;52.440;13.540;2023-04-16T04:38:33;9.30;99.90
14739;DHT22;7461;52.440;13.540;2023-04-16T04:40:59;9.20;99.90
14739;DHT22;7461;52.440;13.540;2023-04-16T04:43:26;9.30;99.90
14739;DHT22;7461;52.440;13.540;2023-04-16T04:45:53;9.20;99.90
14739;DHT22;7461;52.440;13.540;2023-04-16T04:48:21;9.20;99.90
14739;DHT22;7461;52.440;13.540;2023-04-16T04:50:51;9.20;99.90
14739;DHT22;7461;52.440;13.540;2023-04-16T04:53:19;9.10;99.90
14739;DHT22;7461;52.440;13.540;2023-04-16T04:55:45;9.20;99.90
14739;DHT22;7461;52.440;13.540;2023-04-16T04:58:12;9.20;99.90
14739;DHT22;7461;52.440;13.540;2023-04-16T05:00:39;9.10;99.90
14739;DHT22;7461;52.440;13.540;2023-04-16T05:03:10;9.20;99.90
14739;DHT22;7461;52.440;13.540;2023-04-16T05:05:41;9.20;99.90
14739;DHT22;7461;52.440;13.540;2023-04-16T05:08:08;9.20;99.90
14739;DHT22;7461;52.440;13.540;2023-04-16T05:10:35;9.20;99.90
14739;DHT22;7461;52.440;13.540;2023-04-16T05:13:01;9.10;99.90
14739;DHT22;7461;52.440;13.540;2023-04-16T05:15:28;9.20;99.90
14739;DHT22;7461;52.440;13.540;2023-04-16T05:17:55;9.10;99.90
14739;DHT22;7461;52.440;13.540;2023-04-16T05:20:22;9.10;99.90
14739;DHT22;7461;52.440;13.540;2023-04-16T05:22:51;9.10;99.90
14739;DHT22;7461;52.440;13.540;2023-04-16T05:25:20;9.10;99.90
14739;DHT22;7461;52.440;13.540;2023-04-16T05:27:47;9.10;99.90
14739;DHT22;7461;52.440;13.540;2023-04-16T05:30:13;9.10;99.90
14739;DHT22;7461;52.440;13.540;2023-04-16T05:32:40;9.10;99.90
14739;DHT22;7461;52.440;13.540;2023-04-16T05:35:08;9.10;99.90
14739;DHT22;7461;52.440;13.540;2023-04-16T05:37:35;9.10;99.90
14739;DHT22;7461;52.440;13.540;2023-04-16T05:40:04;9.10;99.90
14739;DHT22;7461;52.440;13.540;2023-04-16T05:42:32;9.10;99.90
14739;DHT22;7461;52.440;13.540;2023-04-16T05:44:58;9.10;99.90
14739;DHT22;7461;52.440;13.540;2023-04-16T05:47:25;9.10;99.90
14739;DHT22;7461;52.440;13.540;2023-04-16T05:49:52;9.10;99.90
14739;DHT22;7461;52.440;13.540;2023-04-16T05:52:19;9.10;99.90
14739;DHT22;7461;52.440;13.540;2023-04-16T05:54:46;9.10;99.90
14739;DHT22;7461;52.440;13.540;2023-04-16T05:57:14;9.10;99.90
14739;DHT22;7461;52.440;13.540;2023-04-16T05:59:41;9.10;99.90
14739;DHT22;7461;52.440;13.540;2023-04-16T06:02:08;9.10;99.90
14739;DHT22;7461;52.440;13.540;2023-04-16T06:04:35;9.10;99.90
14739;DHT22;7461;52.440;13.540;2023-04-16T06:07:02;9.20;99.90
14739;DHT22;7461;52.440;13.540;2023-04-16T06:09:29;9.20;99.90
14739;DHT22;7461;52.440;13.540;2023-04-16T06:11:56;9.20;99.90
14739;DHT22;7461;52.440;13.540;2023-04-16T06:14:24;9.20;99.90
14739;DHT22;7461;52.440;13.540;2023-04-16T06:16:51;9.20;99.90
14739;DHT22;7461;52.440;13.540;2023-04-16T06:19:18;9.20;99.90
14739;DHT22;7461;52.440;13.540;2023-04-16T06:21:45;9.20;99.90
14739;DHT22;7461;52.440;13.540;2023-04-16T06:24:12;9.20;99.90
14739;DHT22;7461;52.440;13.540;2023-04-16T06:26:39;9.20;99.90
14739;DHT22;7461;52.440;13.540;2023-04-16T06:29:06;9.20;99.90
14739;DHT22;7461;52.440;13.540;2023-04-16T06:31:34;9.20;99.90
14739;DHT22;7461;52.440;13.540;2023-04-16T06:34:01;9.20;99.90
14739;DHT22;7461;52.440;13.540;2023-04-16T06:36:28;9.20;99.90
14739;DHT22;7461;52.440;13.540;2023-04-16T06:38:55;9.20;99.90
14739;DHT22;7461;52.440;13.540;2023-04-16T06:41:22;9.20;99.90
14739;DHT22;7461;52.440;13.540;2023-04-16T06:43:51;9.20;99.90
14739;DHT22;7461;52.440;13.540;2023-04-16T06:46:18;9.30;99.90
14739;DHT22;7461;52.440;13.540;2023-04-16T06:48:46;9.30;99.90
14739;DHT22;7461;52.440;13.540;2023-04-16T06:51:13;9.30;99.90
14739;DHT22;7461;52.440;13.540;2023-04-16T06:53:40;9.20;99.90
14739;DHT22;7461;52.440;13.540;2023-04-16T06:56:08;9.30;99.90
14739;DHT22;7461;52.440;13.540;2023-04-16T06:58:35;9.30;99.90
14739;DHT22;7461;52.440;13.540;2023-04-16T07:01:02;9.30;99.90
14739;DHT22;7461;52.440;13.540;2023-04-16T07:03:30;9.30;99.90
14739;DHT22;7461;52.440;13.540;2023-04-16T07:05:58;9.30;99.90
14739;DHT22;7461;52.440;13.540;2023-04-16T07:08:25;9.30;99.90
14739;DHT22;7461;52.440;13.540;2023-04-16T07:10:52;9.30;99.90
14739;DHT22;7461;52.440;13.540;2023-04-16T07:13:19;9.30;99.90
14739;DHT22;7461;52.440;13.540;2023-04-16T07:15:46;9.30;99.90
14739;DHT22;7461;52.440;13.540;2023-04-16T07:18:13;9.30;99.90
14739;DHT22;7461;52.440;13.540;2023-04-16T07:20:41;9.40;99.90
14739;DHT22;7461;52.440;13.540;2023-04-16T07:23:09;9.40;99.90
14739;DHT22;7461;52.440;13.540;2023-04-16T07:25:36;9.40;99.90
14739;DHT22;7461;52.440;13.540;2023-04-16T07:28:03;9.40;99.90
14739;DHT22;7461;52.440;13.540;2023-04-16T07:30:30;9.40;99.90
14739;DHT22;7461;52.440;13.540;2023-04-16T07:32:59;9.40;99.90
14739;DHT22;7461;52.440;13.540;2023-04-16T07:35:26;9.40;99.90
14739;DHT22;7461;52.440;13.540;2023-04-16T07:37:53;9.40;99.90
14739;DHT22;7461;52.440;13.540;2023-04-16T07:40:22;9.40;99.90
14739;DHT22;7461;52.440;13.540;2023-04-16T07:42:49;9.50;99.90
14739;DHT22;7461;52.440;13.540;2023-04-16T07:45:17;9.50;99.90
14739;DHT22;7461;52.440;13.540;2023-04-16T07:47:44;9.50;99.90
14739;DHT22;7461;52.440;13.540;2023-04-16T07:52:37;9.60;99.90
14739;DHT22;7461;52.440;13.540;2023-04-16T07:55:07;9.60;99.90
14739;DHT22;7461;52.440;13.540;2023-04-16T07:57:36;9.60;99.90
14739;DHT22;7461;52.440;13.540;2023-04-16T08:00:04;9.60;99.90
14739;DHT22;7461;52.440;13.540;2023-04-16T08:02:32;9.60;99.90
14739;DHT22;7461;52.440;13.540;2023-04-16T08:04:59;9.60;99.90
14739;DHT22;7461;52.440;13.540;2023-04-16T08:07:26;9.60;99.90
14739;DHT22;7461;52.440;13.540;2023-04-16T08:09:54;9.60;99.90
14739;DHT22;7461;52.440;13.540;2023-04-16T08:12:21;9.70;99.90
14739;DHT22;7461;52.440;13.540;2023-04-16T08:14:50;9.70;99.90
14739;DHT22;7461;52.440;13.540;2023-04-16T08:17:17;9.70;99.90
14739;DHT22;7461;52.440;13.540;2023-04-16T08:19:44;9.60;99.90
14739;DHT22;7461;52.440;13.540;2023-04-16T08:22:12;9.60;99.90
14739;DHT22;7461;52.440;13.540;2023-04-16T08:24:42;9.60;99.90
14739;DHT22;7461;52.440;13.540;2023-04-16T08:27:09;9.60;99.90
14739;DHT22;7461;52.440;13.540;2023-04-16T08:29:37;9.60;99.90
14739;DHT22;7461;52.440;13.540;2023-04-16T08:32:05;9.60;99.90
14739;DHT22;7461;52.440;13.540;2023-04-16T08:34:34;9.70;99.90
14739;DHT22;7461;52.440;13.540;2023-04-16T08:37:04;9.70;99.90
14739;DHT22;7461;52.440;13.540;2023-04-16T08:39:31;9.60;99.90
14739;DHT22;7461;52.440;13.540;2023-04-16T08:41:59;9.60;99.90
14739;DHT22;7461;52.440;13.540;2023-04-16T08:44:32;9.60;99.90
14739;DHT22;7461;52.440;13.540;2023-04-16T08:47:02;9.60;99.90
14739;DHT22;7461;52.440;13.540;2023-04-16T08:49:48;9.60;99.90
14739;DHT22;7461;52.440;13.540;2023-04-16T08:52:18;9.60;99.90
14739;DHT22;7461;52.440;13.540;2023-04-16T08:54:50;9.60;99.90
14739;DHT22;7461;52.440;13.540;2023-04-16T08:57:19;9.60;99.90
14739;DHT22;7461;52.440;13.540;2023-04-16T08:59:49;9.60;99.90
14739;DHT22;7461;52.440;13.540;2023-04-16T09:02:19;9.60;99.90
14739;DHT22;7461;52.440;13.540;2023-04-16T09:04:49;9.60;99.90
14739;DHT22;7461;52.440;13.540;2023-04-16T09:07:29;9.60;99.90
14739;DHT22;7461;52.440;13.540;2023-04-16T09:10:11;9.60;99.90
14739;DHT22;7461;52.440;13.540;2023-04-16T09:12:48;9.60;99.90
14739;DHT22;7461;52.440;13.540;2023-04-16T09:15:20;9.60;99.90
14739;DHT22;7461;52.440;13.540;2023-04-16T09:18:01;9.60;99.90
14739;DHT22;7461;52.440;13.540;2023-04-16T09:20:48;9.60;99.90
14739;DHT22;7461;52.440;13.540;2023-04-16T09:23:18;9.60;99.90
14739;DHT22;7461;52.440;13.540;2023-04-16T09:26:01;9.60;99.90
14739;DHT22;7461;52.440;13.540;2023-04-16T09:28:40;9.60;99.90
14739;DHT22;7461;52.440;13.540;2023-04-16T09:31:08;9.60;99.90
14739;DHT22;7461;52.440;13.540;2023-04-16T09:33:39;9.70;99.90
14739;DHT22;7461;52.440;13.540;2023-04-16T09:36:09;9.60;99.90
14739;DHT22;7461;52.440;13.540;2023-04-16T09:38:46;9.70;99.90
14739;DHT22;7461;52.440;13.540;2023-04-16T09:41:14;9.80;99.90
14739;DHT22;7461;52.440;13.540;2023-04-16T09:43:57;9.80;99.90
14739;DHT22;7461;52.440;13.540;2023-04-16T09:46:28;9.80;99.90
14739;DHT22;7461;52.440;13.540;2023-04-16T09:48:56;9.90;99.90
14739;DHT22;7461;52.440;13.540;2023-04-16T09:51:24;9.90;99.90
14739;DHT22;7461;52.440;13.540;2023-04-16T09:53:55;9.90;99.90
14739;DHT22;7461;52.440;13.540;2023-04-16T09:56:23;9.90;99.90
14739;DHT22;7461;52.440;13.540;2023-04-16T09:58:55;9.90;99.90
14739;DHT22;7461;52.440;13.540;2023-04-16T10:01:23;9.90;99.90
14739;DHT22;7461;52.440;13.540;2023-04-16T10:03:53;10.00;99.90
14739;DHT22;7461;52.440;13.540;2023-04-16T10:06:21;10.00;99.90
14739;DHT22;7461;52.440;13.540;2023-04-16T10:08:52;10.10;99.90
14739;DHT22;7461;52.440;13.540;2023-04-16T10:11:21;10.00;99.90
14739;DHT22;7461;52.440;13.540;2023-04-16T10:13:49;10.10;99.90
14739;DHT22;7461;52.440;13.540;2023-04-16T10:16:17;10.10;99.90
14739;DHT22;7461;52.440;13.540;2023-04-16T10:18:45;10.10;99.90
14739;DHT22;7461;52.440;13.540;2023-04-16T10:21:13;10.10;99.90
14739;DHT22;7461;52.440;13.540;2023-04-16T10:23:41;10.10;99.90
14739;DHT22;7461;52.440;13.540;2023-04-16T10:26:10;10.00;99.90
14739;DHT22;7461;52.440;13.540;2023-04-16T10:28:38;10.10;99.90
14739;DHT22;7461;52.440;13.540;2023-04-16T10:31:07;10.10;99.90
14739;DHT22;7461;52.440;13.540;2023-04-16T10:33:36;10.10;99.90
14739;DHT22;7461;52.440;13.540;2023-04-16T10:36:09;10.00;99.90
14739;DHT22;7461;52.440;13.540;2023-04-16T10:38:38;10.00;99.90
14739;DHT22;7461;52.440;13.540;2023-04-16T10:41:06;10.00;99.90
14739;DHT22;7461;52.440;13.540;2023-04-16T10:43:42;10.00;99.90
14739;DHT22;7461;52.440;13.540;2023-04-16T10:46:20;10.00;99.90
14739;DHT22;7461;52.440;13.540;2023-04-16T10:48:48;10.00;99.90
14739;DHT22;7461;52.440;13.540;2023-04-16T10:51:30;10.00;99.90
14739;DHT22;7461;52.440;13.540;2023-04-16T10:54:02;10.00;99.90
14739;DHT22;7461;52.440;13.540;2023-04-16T10:56:31;10.00;99.90
14739;DHT22;7461;52.440;13.540;2023-04-16T10:59:03;10.10;99.90
14739;DHT22;7461;52.440;13.540;2023-04-16T11:01:32;10.20;99.90
14739;DHT22;7461;52.440;13.540;2023-04-16T11:04:00;10.20;99.90
14739;DHT22;7461;52.440;13.540;2023-04-16T11:06:28;10.20;99.90
14739;DHT22;7461;52.440;13.540;2023-04-16T11:08:57;10.20;99.90
14739;DHT22;7461;52.440;13.540;2023-04-16T11:11:24;10.20;99.90
14739;DHT22;7461;52.440;13.540;2023-04-16T11:13:54;10.20;99.90
14739;DHT22;7461;52.440;13.540;2023-04-16T11:16:24;10.30;99.90
14739;DHT22;7461;52.440;13.540;2023-04-16T11:18:54;10.20;99.90
14739;DHT22;7461;52.440;13.540;2023-04-16T11:21:22;10.20;99.90
14739;DHT22;7461;52.440;13.540;2023-04-16T11:23:51;10.20;99.90
14739;DHT22;7461;52.440;13.540;2023-04-16T11:26:23;10.20;99.90
14739;DHT22;7461;52.440;13.540;2023-04-16T11:28:55;10.20;99.90
14739;DHT22;7461;52.440;13.540;2023-04-16T11:31:24;10.20;99.90
14739;DHT22;7461;52.440;13.540;2023-04-16T11:33:51;10.20;99.90
14739;DHT22;7461;52.440;13.540;2023-04-16T11:36:21;10.20;99.90
14739;DHT22;7461;52.440;13.540;2023-04-16T11:38:48;10.20;99.90
14739;DHT22;7461;52.440;13.540;2023-04-16T11:41:19;10.30;99.90
14739;DHT22;7461;52.440;13.540;2023-04-16T11:43:47;10.30;99.90
14739;DHT22;7461;52.440;13.540;2023-04-16T11:46:14;10.30;99.90
14739;DHT22;7461;52.440;13.540;2023-04-16T11:48:50;10.40;99.90
14739;DHT22;7461;52.440;13.540;2023-04-16T11:51:17;10.40;99.90
14739;DHT22;7461;52.440;13.540;2023-04-16T11:53:47;10.40;99.90
14739;DHT22;7461;52.440;13.540;2023-04-16T11:56:15;10.40;99.90
14739;DHT22;7461;52.440;13.540;2023-04-16T11:58:42;10.50;99.90
14739;DHT22;7461;52.440;13.540;2023-04-16T12:01:10;10.50;99.90
14739;DHT22;7461;52.440;13.540;2023-04-16T12:03:39;10.60;99.90
14739;DHT22;7461;52.440;13.540;2023-04-16T12:06:11;10.60;99.90
14739;DHT22;7461;52.440;13.540;2023-04-16T12:08:38;10.60;99.90
14739;DHT22;7461;52.440;13.540;2023-04-16T12:11:06;10.60;99.90
14739;DHT22;7461;52.440;13.540;2023-04-16T12:13:33;10.60;99.90
14739;DHT22;7461;52.440;13.540;2023-04-16T12:16:15;10.60;99.90
14739;DHT22;7461;52.440;13.540;2023-04-16T12:18:58;10.60;99.90
14739;DHT22;7461;52.440;13.540;2023-04-16T12:21:36;10.70;99.90
14739;DHT22;7461;52.440;13.540;2023-04-16T12:24:04;10.70;99.90
14739;DHT22;7461;52.440;13.540;2023-04-16T12:26:39;10.70;99.90
14739;DHT22;7461;52.440;13.540;2023-04-16T12:29:20;10.70;99.90
14739;DHT22;7461;52.440;13.540;2023-04-16T12:31:48;10.70;99.90
14739;DHT22;7461;52.440;13.540;2023-04-16T12:34:16;10.60;99.90
14739;DHT22;7461;52.440;13.540;2023-04-16T12:36:46;10.60;99.90
14739;DHT22;7461;52.440;13.540;2023-04-16T12:39:15;10.60;99.90
14739;DHT22;7461;52.440;13.540;2023-04-16T12:41:43;10.50;99.90
14739;DHT22;7461;52.440;13.540;2023-04-16T12:44:14;10.50;99.90
14739;DHT22;7461;52.440;13.540;2023-04-16T12:46:43;10.40;99.90
14739;DHT22;7461;52.440;13.540;2023-04-16T12:49:12;10.40;99.90
14739;DHT22;7461;52.440;13.540;2023-04-16T12:51:42;10.40;99.90
14739;DHT22;7461;52.440;13.540;2023-04-16T12:54:11;10.40;99.90
14739;DHT22;7461;52.440;13.540;2023-04-16T12:56:38;10.40;99.90
14739;DHT22;7461;52.440;13.540;2023-04-16T12:59:05;10.30;99.90
14739;DHT22;7461;52.440;13.540;2023-04-16T13:01:34;10.30;99.90
14739;DHT22;7461;52.440;13.540;2023-04-16T13:04:04;10.30;99.90
14739;DHT22;7461;52.440;13.540;2023-04-16T13:06:45;10.30;99.90
14739;DHT22;7461;52.440;13.540;2023-04-16T13:09:30;10.30;99.90
14739;DHT22;7461;52.440;13.540;2023-04-16T13:12:26;10.30;99.90
14739;DHT22;7461;52.440;13.540;2023-04-16T13:15:10;10.20;99.90
14739;DHT22;7461;52.440;13.540;2023-04-16T13:17:38;10.20;99.90
14739;DHT22;7461;52.440;13.540;2023-04-16T13:20:27;10.20;99.90
14739;DHT22;7461;52.440;13.540;2023-04-16T13:26:40;10.20;99.90
14739;DHT22;7461;52.440;13.540;2023-04-16T13:29:08;10.20;99.90
14739;DHT22;7461;52.440;13.540;2023-04-16T13:31:35;10.20;99.90
14739;DHT22;7461;52.440;13.540;2023-04-16T13:34:02;10.10;99.90
14739;DHT22;7461;52.440;13.540;2023-04-16T13:36:30;10.10;99.90
14739;DHT22;7461;52.440;13.540;2023-04-16T13:38:58;10.10;99.90
14739;DHT22;7461;52.440;13.540;2023-04-16T13:41:26;10.10;99.90
14739;DHT22;7461;52.440;13.540;2023-04-16T13:43:54;10.10;99.90
14739;DHT22;7461;52.440;13.540;2023-04-16T13:46:21;10.00;99.90
14739;DHT22;7461;52.440;13.540;2023-04-16T13:48:48;10.00;99.90
14739;DHT22;7461;52.440;13.540;2023-04-16T13:51:15;9.90;99.90
14739;DHT22;7461;52.440;13.540;2023-04-16T13:53:42;9.90;99.90
14739;DHT22;7461;52.440;13.540;2023-04-16T13:56:09;9.90;99.90
14739;DHT22;7461;52.440;13.540;2023-04-16T13:58:37;9.90;99.90
14739;DHT22;7461;52.440;13.540;2023-04-16T14:01:05;9.90;99.90
14739;DHT22;7461;52.440;13.540;2023-04-16T14:03:32;9.80;99.90
14739;DHT22;7461;52.440;13.540;2023-04-16T14:06:00;9.90;99.90
14739;DHT22;7461;52.440;13.540;2023-04-16T14:08:27;9.90;99.90
14739;DHT22;7461;52.440;13.540;2023-04-16T14:10:55;9.90;99.90
14739;DHT22;7461;52.440;13.540;2023-04-16T14:13:23;9.90;99.90
14739;DHT22;7461;52.440;13.540;2023-04-16T14:15:52;9.90;99.90
14739;DHT22;7461;52.440;13.540;2023-04-16T14:18:20;9.90;99.90
14739;DHT22;7461;52.440;13.540;2023-04-16T14:20:47;10.00;99.90
14739;DHT22;7461;52.440;13.540;2023-04-16T14:23:14;10.00;99.90
14739;DHT22;7461;52.440;13.540;2023-04-16T14:25:41;10.00;99.90
14739;DHT22;7461;52.440;13.540;2023-04-16T14:28:08;10.10;99.90
14739;DHT22;7461;52.440;13.540;2023-04-16T14:30:35;10.20;99.90
14739;DHT22;7461;52.440;13.540;2023-04-16T14:33:06;10.20;99.90
14739;DHT22;7461;52.440;13.540;2023-04-16T14:35:35;10.20;99.90
14739;DHT22;7461;52.440;13.540;2023-04-16T14:38:02;10.30;99.90
14739;DHT22;7461;52.440;13.540;2023-04-16T14:40:29;10.30;99.90
14739;DHT22;7461;52.440;13.540;2023-04-16T14:42:56;10.40;99.90
14739;DHT22;7461;52.440;13.540;2023-04-16T14:45:23;10.40;99.90
14739;DHT22;7461;52.440;13.540;2023-04-16T14:47:53;10.40;99.90
14739;DHT22;7461;52.440;13.540;2023-04-16T14:50:20;10.40;99.90
14739;DHT22;7461;52.440;13.540;2023-04-16T14:52:49;10.50;99.90
14739;DHT22;7461;52.440;13.540;2023-04-16T14:55:18;10.40;99.90
14739;DHT22;7461;52.440;13.540;2023-04-16T14:57:46;10.40;99.90
14739;DHT22;7461;52.440;13.540;2023-04-16T15:00:13;10.40;99.90
14739;DHT22;7461;52.440;13.540;2023-04-16T15:02:43;10.40;99.90
14739;DHT22;7461;52.440;13.540;2023-04-16T15:05:10;10.40;99.90
14739;DHT22;7461;52.440;13.540;2023-04-16T15:07:37;10.30;99.90
14739;DHT22;7461;52.440;13.540;2023-04-16T15:10:07;10.30;99.90
14739;DHT22;7461;52.440;13.540;2023-04-16T15:12:35;10.20;99.90
14739;DHT22;7461;52.440;13.540;2023-04-16T15:15:03;10.20;99.90
14739;DHT22;7461;52.440;13.540;2023-04-16T15:17:34;10.20;99.90
14739;DHT22;7461;52.440;13.540;2023-04-16T15:20:38;10.20;99.90
14739;DHT22;7461;52.440;13.540;2023-04-16T15:26:34;10.10;99.90
14739;DHT22;7461;52.440;13.540;2023-04-16T15:29:01;10.10;99.90
14739;DHT22;7461;52.440;13.540;2023-04-16T15:31:28;10.00;99.90
14739;DHT22;7461;52.440;13.540;2023-04-16T15:33:55;10.00;99.90
14739;DHT22;7461;52.440;13.540;2023-04-16T15:36:24;10.00;99.90
14739;DHT22;7461;52.440;13.540;2023-04-16T15:38:51;10.00;99.90
14739;DHT22;7461;52.440;13.540;2023-04-16T15:41:18;9.90;99.90
14739;DHT22;7461;52.440;13.540;2023-04-16T15:43:46;9.90;99.90
14739;DHT22;7461;52.440;13.540;2023-04-16T15:46:14;9.90;99.90
14739;DHT22;7461;52.440;13.540;2023-04-16T15:48:41;9.90;99.90
14739;DHT22;7461;52.440;13.540;2023-04-16T15:51:08;9.90;99.90
14739;DHT22;7461;52.440;13.540;2023-04-16T15:53:34;9.80;99.90
14739;DHT22;7461;52.440;13.540;2023-04-16T15:56:02;9.80;99.90
14739;DHT22;7461;52.440;13.540;2023-04-16T15:58:29;9.80;99.90
14739;DHT22;7461;52.440;13.540;2023-04-16T16:00:57;9.80;99.90